sensor_id;sensor_type;location;lat;lon;timestamp;pressure;altitude;pressure_sealevel;temperature;humidity
6208;BME280;3137;51.550;7.060;2023-03-18T00:02:08;100405.47;;;11.98;69.76
6208;BME280;3137;51.550;7.060;2023-03-18T00:04:35;100407.31;;;11.97;69.37
6208;BME280;3137;51.550;7.060;2023-03-18T00:07:02;100403.00;;;11.95;69.36
6208;BME280;3137;51.550;7.060;2023-03-18T00:09:28;100409.63;;;11.90;69.79
6208;BME280;3137;51.550;7.060;2023-03-18T00:11:55;100403.63;;;11.98;68.93
6208;BME280;3137;51.550;7.060;2023-03-18T00:14:22;100409.72;;;12.00;68.97
6208;BME280;3137;51.550;7.060;2023-03-18T00:16:49;100399.75;;;11.91;69.85
6208;BME280;3137;51.550;7.060;2023-03-18T00:19:16;100399.63;;;11.93;69.94
6208;BME280;3137;51.550;7.060;2023-03-18T00:21:43;100402.78;;;11.86;69.64
6208;BME280;3137;51.550;7.060;2023-03-18T00:24:10;100395.50;;;11.88;69.95
6208;BME280;3137;51.550;7.060;2023-03-18T00:26:37;100406.44;;;11.97;69.88
6208;BME280;3137;51.550;7.060;2023-03-18T00:29:04;100399.63;;;11.93;69.35
6208;BME280;3137;51.550;7.060;2023-03-18T00:31:30;100402.06;;;11.96;69.63
6208;BME280;3137;51.550;7.060;2023-03-18T00:33:57;100414.88;;;11.92;69.75
6208;BME280;3137;51.550;7.060;2023-03-18T00:36:23;100413.44;;;11.88;68.98
6208;BME280;3137;51.550;7.060;2023-03-18T00:38:54;100414.16;;;11.90;69.03
6208;BME280;3137;51.550;7.060;2023-03-18T00:41:24;100411.59;;;11.88;69.66
6208;BME280;3137;51.550;7.060;2023-03-18T00:43:51;100426.09;;;11.86;69.50
6208;BME280;3137;51.550;7.060;2023-03-18T00:46:27;100424.50;;;11.83;70.10
6208;BME280;3137;51.550;7.060;2023-03-18T00:48:57;100421.81;;;11.83;69.71
6208;BME280;3137;51.550;7.060;2023-03-18T00:51:29;100425.00;;;11.88;69.84
6208;BME280;3137;51.550;7.060;2023-03-18T00:53:59;100410.09;;;11.96;68.92
6208;BME280;3137;51.550;7.060;2023-03-18T00:56:27;100425.47;;;11.94;68.76
6208;BME280;3137;51.550;7.060;2023-03-18T00:58:54;100426.47;;;11.93;68.74
6208;BME280;3137;51.550;7.060;2023-03-18T01:01:23;100419.16;;;11.83;69.59
6208;BME280;3137;51.550;7.060;2023-03-18T01:03:50;100415.13;;;11.78;70.01
6208;BME280;3137;51.550;7.060;2023-03-18T01:06:19;100405.25;;;11.78;69.55
6208;BME280;3137;51.550;7.060;2023-03-18T01:08:48;100412.44;;;11.78;69.00
6208;BME280;3137;51.550;7.060;2023-03-18T01:11:16;100412.81;;;11.73;70.17
6208;BME280;3137;51.550;7.060;2023-03-18T01:13:43;100415.16;;;11.66;69.92
6208;BME280;3137;51.550;7.060;2023-03-18T01:16:11;100415.16;;;11.66;69.61
6208;BME280;3137;51.550;7.060;2023-03-18T01:18:39;100400.88;;;11.66;70.36
6208;BME280;3137;51.550;7.060;2023-03-18T01:21:07;100410.03;;;11.63;69.44
6208;BME280;3137;51.550;7.060;2023-03-18T01:23:39;100402.34;;;11.59;70.08
6208;BME280;3137;51.550;7.060;2023-03-18T01:26:06;100407.22;;;11.65;70.07
6208;BME280;3137;51.550;7.060;2023-03-18T01:28:33;100411.84;;;11.63;69.74
6208;BME280;3137;51.550;7.060;2023-03-18T01:31:02;100417.84;;;11.55;70.07
6208;BME280;3137;51.550;7.060;2023-03-18T01:33:28;100419.44;;;11.46;70.52
6208;BME280;3137;51.550;7.060;2023-03-18T01:35:57;100420.06;;;11.50;71.31
6208;BME280;3137;51.550;7.060;2023-03-18T01:38:28;100415.53;;;11.50;70.93
6208;BME280;3137;51.550;7.060;2023-03-18T01:41:06;100408.22;;;11.53;70.35
6208;BME280;3137;51.550;7.060;2023-03-18T01:43:35;100416.00;;;11.56;70.32
6208;BME280;3137;51.550;7.060;2023-03-18T01:46:27;100409.06;;;11.53;71.00
6208;BME280;3137;51.550;7.060;2023-03-18T01:48:57;100402.88;;;11.53;70.72
6208;BME280;3137;51.550;7.060;2023-03-18T01:51:25;100413.69;;;11.62;70.29
6208;BME280;3137;51.550;7.060;2023-03-18T01:53:52;100408.44;;;11.61;70.39
6208;BME280;3137;51.550;7.060;2023-03-18T01:56:20;100412.84;;;11.62;70.87
6208;BME280;3137;51.550;7.060;2023-03-18T01:58:50;100421.38;;;11.67;70.74
6208;BME280;3137;51.550;7.060;2023-03-18T02:01:25;100421.47;;;11.65;71.22
6208;BME280;3137;51.550;7.060;2023-03-18T02:03:55;100422.31;;;11.66;71.32
6208;BME280;3137;51.550;7.060;2023-03-18T02:06:23;100431.09;;;11.68;71.31
6208;BME280;3137;51.550;7.060;2023-03-18T02:08:58;100438.31;;;11.67;71.25
6208;BME280;3137;51.550;7.060;2023-03-18T02:11:26;100436.63;;;11.66;70.96
6208;BME280;3137;51.550;7.060;2023-03-18T02:13:58;100433.41;;;11.73;70.44
6208;BME280;3137;51.550;7.060;2023-03-18T02:16:30;100437.81;;;11.74;70.86
6208;BME280;3137;51.550;7.060;2023-03-18T02:19:10;100426.09;;;11.75;70.88
6208;BME280;3137;51.550;7.060;2023-03-18T02:24:32;100414.00;;;11.80;70.88
6208;BME280;3137;51.550;7.060;2023-03-18T02:27:19;100425.13;;;11.76;71.80
6208;BME280;3137;51.550;7.060;2023-03-18T02:29:47;100415.50;;;11.73;71.17
6208;BME280;3137;51.550;7.060;2023-03-18T02:32:19;100414.53;;;11.74;71.35
6208;BME280;3137;51.550;7.060;2023-03-18T02:34:46;100420.84;;;11.73;71.62
6208;BME280;3137;51.550;7.060;2023-03-18T02:37:14;100410.75;;;11.77;70.91
6208;BME280;3137;51.550;7.060;2023-03-18T02:39:41;100415.25;;;11.76;71.45
6208;BME280;3137;51.550;7.060;2023-03-18T02:42:12;100419.63;;;11.77;71.31
6208;BME280;3137;51.550;7.060;2023-03-18T02:44:46;100425.00;;;11.77;71.16
6208;BME280;3137;51.550;7.060;2023-03-18T02:47:30;100431.72;;;11.71;71.58
6208;BME280;3137;51.550;7.060;2023-03-18T02:49:57;100420.47;;;11.78;71.28
6208;BME280;3137;51.550;7.060;2023-03-18T02:52:24;100422.84;;;11.71;71.46
6208;BME280;3137;51.550;7.060;2023-03-18T02:54:51;100420.53;;;11.66;71.89
6208;BME280;3137;51.550;7.060;2023-03-18T02:57:18;100418.44;;;11.59;71.81
6208;BME280;3137;51.550;7.060;2023-03-18T02:59:45;100423.09;;;11.57;71.68
6208;BME280;3137;51.550;7.060;2023-03-18T03:02:12;100420.06;;;11.50;72.59
6208;BME280;3137;51.550;7.060;2023-03-18T03:04:38;100433.94;;;11.44;72.10
6208;BME280;3137;51.550;7.060;2023-03-18T03:07:05;100429.31;;;11.35;72.49
6208;BME280;3137;51.550;7.060;2023-03-18T03:09:38;100430.31;;;11.34;73.44
6208;BME280;3137;51.550;7.060;2023-03-18T03:12:07;100430.91;;;11.26;72.54
6208;BME280;3137;51.550;7.060;2023-03-18T03:14:39;100436.03;;;11.18;73.27
6208;BME280;3137;51.550;7.060;2023-03-18T03:17:06;100437.38;;;11.12;73.29
6208;BME280;3137;51.550;7.060;2023-03-18T03:19:32;100452.59;;;11.12;73.74
6208;BME280;3137;51.550;7.060;2023-03-18T03:22:00;100445.66;;;11.09;73.65
6208;BME280;3137;51.550;7.060;2023-03-18T03:24:26;100444.56;;;11.12;74.26
6208;BME280;3137;51.550;7.060;2023-03-18T03:26:53;100448.34;;;11.09;74.20
6208;BME280;3137;51.550;7.060;2023-03-18T03:29:20;100448.19;;;11.11;74.96
6208;BME280;3137;51.550;7.060;2023-03-18T03:31:48;100442.84;;;11.11;74.46
6208;BME280;3137;51.550;7.060;2023-03-18T03:34:14;100442.34;;;11.05;75.30
6208;BME280;3137;51.550;7.060;2023-03-18T03:36:41;100437.13;;;11.04;75.50
6208;BME280;3137;51.550;7.060;2023-03-18T03:39:08;100447.22;;;11.00;75.43
6208;BME280;3137;51.550;7.060;2023-03-18T03:41:34;100451.38;;;11.04;75.93
6208;BME280;3137;51.550;7.060;2023-03-18T03:44:00;100448.94;;;11.01;76.15
6208;BME280;3137;51.550;7.060;2023-03-18T03:46:27;100448.69;;;10.93;76.28
6208;BME280;3137;51.550;7.060;2023-03-18T03:48:54;100444.06;;;10.95;76.36
6208;BME280;3137;51.550;7.060;2023-03-18T03:51:20;100447.19;;;10.89;76.84
6208;BME280;3137;51.550;7.060;2023-03-18T03:53:47;100447.09;;;10.91;76.84
6208;BME280;3137;51.550;7.060;2023-03-18T03:56:13;100455.03;;;10.92;76.91
6208;BME280;3137;51.550;7.060;2023-03-18T03:58:40;100456.22;;;10.88;77.33
6208;BME280;3137;51.550;7.060;2023-03-18T04:01:07;100456.97;;;10.90;77.59
6208;BME280;3137;51.550;7.060;2023-03-18T04:03:33;100460.47;;;10.91;77.76
6208;BME280;3137;51.550;7.060;2023-03-18T04:06:04;100455.50;;;10.97;77.89
6208;BME280;3137;51.550;7.060;2023-03-18T04:08:33;100463.66;;;10.96;77.73
6208;BME280;3137;51.550;7.060;2023-03-18T04:11:00;100466.22;;;10.97;78.13
6208;BME280;3137;51.550;7.060;2023-03-18T04:13:30;100475.59;;;11.03;78.10
6208;BME280;3137;51.550;7.060;2023-03-18T04:15:56;100471.97;;;11.04;77.73
6208;BME280;3137;51.550;7.060;2023-03-18T04:18:22;100480.72;;;11.06;78.32
6208;BME280;3137;51.550;7.060;2023-03-18T04:20:49;100481.59;;;11.06;78.01
6208;BME280;3137;51.550;7.060;2023-03-18T04:23:24;100476.44;;;11.03;78.61
6208;BME280;3137;51.550;7.060;2023-03-18T04:25:52;100475.13;;;11.09;77.96
6208;BME280;3137;51.550;7.060;2023-03-18T04:28:18;100478.56;;;11.11;77.75
6208;BME280;3137;51.550;7.060;2023-03-18T04:30:47;100485.13;;;11.07;78.70
6208;BME280;3137;51.550;7.060;2023-03-18T04:33:16;100483.03;;;11.11;78.13
6208;BME280;3137;51.550;7.060;2023-03-18T04:35:43;100490.97;;;11.12;78.91
6208;BME280;3137;51.550;7.060;2023-03-18T04:38:12;100489.97;;;11.13;78.06
6208;BME280;3137;51.550;7.060;2023-03-18T04:40:39;100483.78;;;11.13;78.11
6208;BME280;3137;51.550;7.060;2023-03-18T04:43:06;100486.59;;;11.11;78.39
6208;BME280;3137;51.550;7.060;2023-03-18T04:45:32;100485.97;;;11.07;78.70
6208;BME280;3137;51.550;7.060;2023-03-18T04:48:00;100486.47;;;11.13;79.34
6208;BME280;3137;51.550;7.060;2023-03-18T04:50:31;100492.06;;;11.10;78.63
6208;BME280;3137;51.550;7.060;2023-03-18T04:52:58;100494.63;;;11.11;79.21
6208;BME280;3137;51.550;7.060;2023-03-18T04:55:27;100498.28;;;11.10;79.72
6208;BME280;3137;51.550;7.060;2023-03-18T04:57:55;100503.38;;;11.13;79.52
6208;BME280;3137;51.550;7.060;2023-03-18T05:00:24;100501.22;;;11.18;78.93
6208;BME280;3137;51.550;7.060;2023-03-18T05:02:58;100493.28;;;11.17;78.63
6208;BME280;3137;51.550;7.060;2023-03-18T05:05:25;100500.25;;;11.19;79.35
6208;BME280;3137;51.550;7.060;2023-03-18T05:07:52;100492.09;;;11.21;78.90
6208;BME280;3137;51.550;7.060;2023-03-18T05:10:20;100502.19;;;11.17;79.61
6208;BME280;3137;51.550;7.060;2023-03-18T05:12:46;100506.94;;;11.25;79.68
6208;BME280;3137;51.550;7.060;2023-03-18T05:15:16;100502.81;;;11.21;79.31
6208;BME280;3137;51.550;7.060;2023-03-18T05:17:47;100505.97;;;11.26;79.54
6208;BME280;3137;51.550;7.060;2023-03-18T05:20:14;100507.69;;;11.27;79.80
6208;BME280;3137;51.550;7.060;2023-03-18T05:22:43;100514.63;;;11.29;78.93
6208;BME280;3137;51.550;7.060;2023-03-18T05:25:15;100509.63;;;11.36;78.49
6208;BME280;3137;51.550;7.060;2023-03-18T05:27:42;100516.09;;;11.34;78.66
6208;BME280;3137;51.550;7.060;2023-03-18T05:30:16;100513.66;;;11.42;78.53
6208;BME280;3137;51.550;7.060;2023-03-18T05:32:47;100514.25;;;11.34;78.62
6208;BME280;3137;51.550;7.060;2023-03-18T05:35:15;100506.97;;;11.36;79.15
6208;BME280;3137;51.550;7.060;2023-03-18T05:37:46;100508.44;;;11.40;79.06
6208;BME280;3137;51.550;7.060;2023-03-18T05:40:13;100519.16;;;11.40;79.09
6208;BME280;3137;51.550;7.060;2023-03-18T05:42:45;100521.69;;;11.42;78.92
6208;BME280;3137;51.550;7.060;2023-03-18T05:45:30;100520.38;;;11.47;78.38
6208;BME280;3137;51.550;7.060;2023-03-18T05:47:57;100528.91;;;11.41;78.90
6208;BME280;3137;51.550;7.060;2023-03-18T05:50:29;100515.13;;;11.46;77.98
6208;BME280;3137;51.550;7.060;2023-03-18T05:52:57;100525.00;;;11.45;78.83
6208;BME280;3137;51.550;7.060;2023-03-18T05:55:26;100526.59;;;11.48;78.48
6208;BME280;3137;51.550;7.060;2023-03-18T05:57:55;100533.53;;;11.39;78.15
6208;BME280;3137;51.550;7.060;2023-03-18T06:00:22;100545.25;;;11.49;77.73
6208;BME280;3137;51.550;7.060;2023-03-18T06:02:50;100544.03;;;11.42;78.96
6208;BME280;3137;51.550;7.060;2023-03-18T06:05:21;100547.06;;;11.49;77.90
6208;BME280;3137;51.550;7.060;2023-03-18T06:07:48;100554.75;;;11.54;78.51
6208;BME280;3137;51.550;7.060;2023-03-18T06:10:15;100542.22;;;11.54;78.37
6208;BME280;3137;51.550;7.060;2023-03-18T06:12:45;100542.81;;;11.58;78.43
6208;BME280;3137;51.550;7.060;2023-03-18T06:15:12;100548.19;;;11.58;77.41
6208;BME280;3137;51.550;7.060;2023-03-18T06:17:38;100548.28;;;11.56;77.56
6208;BME280;3137;51.550;7.060;2023-03-18T06:20:07;100550.47;;;11.51;77.88
6208;BME280;3137;51.550;7.060;2023-03-18T06:22:35;100547.56;;;11.54;77.66
6208;BME280;3137;51.550;7.060;2023-03-18T06:25:02;100558.78;;;11.48;77.44
6208;BME280;3137;51.550;7.060;2023-03-18T06:27:30;100555.84;;;11.51;78.03
6208;BME280;3137;51.550;7.060;2023-03-18T06:29:57;100557.22;;;11.57;77.21
6208;BME280;3137;51.550;7.060;2023-03-18T06:32:28;100563.03;;;11.50;78.34
6208;BME280;3137;51.550;7.060;2023-03-18T06:34:55;100561.34;;;11.49;78.16
6208;BME280;3137;51.550;7.060;2023-03-18T06:37:23;100571.81;;;11.53;77.36
6208;BME280;3137;51.550;7.060;2023-03-18T06:39:50;100574.75;;;11.61;77.34
6208;BME280;3137;51.550;7.060;2023-03-18T06:42:16;100574.00;;;11.59;78.13
6208;BME280;3137;51.550;7.060;2023-03-18T06:44:48;100579.38;;;11.59;77.45
6208;BME280;3137;51.550;7.060;2023-03-18T06:47:23;100586.09;;;11.64;78.28
6208;BME280;3137;51.550;7.060;2023-03-18T06:49:54;100582.91;;;11.70;78.01
6208;BME280;3137;51.550;7.060;2023-03-18T06:52:29;100584.75;;;11.70;78.53
6208;BME280;3137;51.550;7.060;2023-03-18T06:55:00;100588.06;;;11.74;77.99
6208;BME280;3137;51.550;7.060;2023-03-18T06:57:27;100593.66;;;11.82;76.91
6208;BME280;3137;51.550;7.060;2023-03-18T06:59:54;100589.66;;;11.87;77.55
6208;BME280;3137;51.550;7.060;2023-03-18T07:02:21;100594.41;;;11.84;77.20
6208;BME280;3137;51.550;7.060;2023-03-18T07:04:49;100589.78;;;11.86;76.92
6208;BME280;3137;51.550;7.060;2023-03-18T07:07:16;100582.19;;;11.80;77.21
6208;BME280;3137;51.550;7.060;2023-03-18T07:09:43;100596.75;;;11.88;76.57
6208;BME280;3137;51.550;7.060;2023-03-18T07:12:13;100592.72;;;11.94;77.30
6208;BME280;3137;51.550;7.060;2023-03-18T07:14:40;100598.56;;;11.99;77.05
6208;BME280;3137;51.550;7.060;2023-03-18T07:17:08;100593.41;;;11.85;76.58
6208;BME280;3137;51.550;7.060;2023-03-18T07:19:37;100594.91;;;11.89;76.68
6208;BME280;3137;51.550;7.060;2023-03-18T07:22:05;100605.38;;;11.81;77.44
6208;BME280;3137;51.550;7.060;2023-03-18T07:24:31;100606.09;;;11.71;77.59
6208;BME280;3137;51.550;7.060;2023-03-18T07:26:58;100606.50;;;11.78;77.58
6208;BME280;3137;51.550;7.060;2023-03-18T07:29:24;100612.84;;;11.88;77.11
6208;BME280;3137;51.550;7.060;2023-03-18T07:31:51;100615.53;;;11.88;76.66
6208;BME280;3137;51.550;7.060;2023-03-18T07:34:17;100609.66;;;11.95;77.07
6208;BME280;3137;51.550;7.060;2023-03-18T07:36:44;100616.16;;;12.03;76.21
6208;BME280;3137;51.550;7.060;2023-03-18T07:39:10;100616.63;;;12.08;76.03
6208;BME280;3137;51.550;7.060;2023-03-18T07:41:37;100618.47;;;12.19;76.56
6208;BME280;3137;51.550;7.060;2023-03-18T07:44:04;100611.63;;;12.26;76.17
6208;BME280;3137;51.550;7.060;2023-03-18T07:46:32;100617.22;;;12.34;75.64
6208;BME280;3137;51.550;7.060;2023-03-18T07:48:59;100624.28;;;12.47;75.21
6208;BME280;3137;51.550;7.060;2023-03-18T07:51:26;100624.28;;;12.47;74.77
6208;BME280;3137;51.550;7.060;2023-03-18T07:53:52;100629.75;;;12.56;74.81
6208;BME280;3137;51.550;7.060;2023-03-18T07:56:19;100629.25;;;12.63;74.55
6208;BME280;3137;51.550;7.060;2023-03-18T07:58:45;100629.81;;;12.77;74.57
6208;BME280;3137;51.550;7.060;2023-03-18T08:01:13;100632.94;;;12.94;73.67
6208;BME280;3137;51.550;7.060;2023-03-18T08:03:41;100632.84;;;12.95;73.23
6208;BME280;3137;51.550;7.060;2023-03-18T08:06:09;100634.03;;;13.03;72.91
6208;BME280;3137;51.550;7.060;2023-03-18T08:08:37;100632.44;;;13.00;72.51
6208;BME280;3137;51.550;7.060;2023-03-18T08:11:03;100639.88;;;13.08;72.69
6208;BME280;3137;51.550;7.060;2023-03-18T08:13:30;100628.84;;;13.11;72.49
6208;BME280;3137;51.550;7.060;2023-03-18T08:15:57;100642.56;;;13.08;72.84
6208;BME280;3137;51.550;7.060;2023-03-18T08:18:23;100638.69;;;13.22;71.87
6208;BME280;3137;51.550;7.060;2023-03-18T08:20:50;100644.78;;;13.24;72.31
6208;BME280;3137;51.550;7.060;2023-03-18T08:23:18;100645.63;;;13.35;71.54
6208;BME280;3137;51.550;7.060;2023-03-18T08:25:48;100644.97;;;13.43;71.18
6208;BME280;3137;51.550;7.060;2023-03-18T08:28:16;100651.81;;;13.47;70.76
6208;BME280;3137;51.550;7.060;2023-03-18T08:30:43;100656.06;;;13.50;70.29
6208;BME280;3137;51.550;7.060;2023-03-18T08:33:09;100660.66;;;13.59;70.53
6208;BME280;3137;51.550;7.060;2023-03-18T08:35:38;100653.13;;;13.53;69.79
6208;BME280;3137;51.550;7.060;2023-03-18T08:38:06;100659.88;;;13.47;69.67
6208;BME280;3137;51.550;7.060;2023-03-18T08:40:33;100667.22;;;13.45;69.90
6208;BME280;3137;51.550;7.060;2023-03-18T08:43:00;100660.47;;;13.51;70.35
6208;BME280;3137;51.550;7.060;2023-03-18T08:45:26;100666.81;;;13.50;70.43
6208;BME280;3137;51.550;7.060;2023-03-18T08:47:53;100667.94;;;13.68;69.71
6208;BME280;3137;51.550;7.060;2023-03-18T08:50:20;100670.34;;;13.92;69.80
6208;BME280;3137;51.550;7.060;2023-03-18T08:52:47;100679.81;;;14.17;69.10
6208;BME280;3137;51.550;7.060;2023-03-18T08:55:14;100682.38;;;14.50;69.26
6208;BME280;3137;51.550;7.060;2023-03-18T08:57:41;100686.59;;;14.73;68.35
6208;BME280;3137;51.550;7.060;2023-03-18T09:00:08;100677.47;;;14.55;65.51
6208;BME280;3137;51.550;7.060;2023-03-18T09:02:35;100674.22;;;14.61;65.95
6208;BME280;3137;51.550;7.060;2023-03-18T09:05:01;100676.34;;;14.67;66.07
6208;BME280;3137;51.550;7.060;2023-03-18T09:07:28;100667.69;;;14.54;65.12
6208;BME280;3137;51.550;7.060;2023-03-18T09:09:55;100683.44;;;14.28;65.69
6208;BME280;3137;51.550;7.060;2023-03-18T09:12:22;100682.72;;;14.25;66.43
6208;BME280;3137;51.550;7.060;2023-03-18T09:14:48;100682.59;;;14.27;66.28
6208;BME280;3137;51.550;7.060;2023-03-18T09:17:15;100690.75;;;14.16;67.52
6208;BME280;3137;51.550;7.060;2023-03-18T09:19:41;100682.13;;;14.22;67.98
6208;BME280;3137;51.550;7.060;2023-03-18T09:22:08;100677.91;;;13.98;66.90
6208;BME280;3137;51.550;7.060;2023-03-18T09:24:35;100681.19;;;13.81;66.90
6208;BME280;3137;51.550;7.060;2023-03-18T09:27:01;100678.06;;;13.76;68.00
6208;BME280;3137;51.550;7.060;2023-03-18T09:29:28;100679.22;;;14.04;67.96
6208;BME280;3137;51.550;7.060;2023-03-18T09:31:54;100690.31;;;14.41;68.28
6208;BME280;3137;51.550;7.060;2023-03-18T09:34:21;100684.56;;;14.56;66.28
6208;BME280;3137;51.550;7.060;2023-03-18T09:36:48;100691.94;;;14.54;65.80
6208;BME280;3137;51.550;7.060;2023-03-18T09:39:18;100687.75;;;14.40;65.54
6208;BME280;3137;51.550;7.060;2023-03-18T09:44:53;100692.50;;;14.26;66.17
6208;BME280;3137;51.550;7.060;2023-03-18T09:47:44;100687.84;;;14.08;66.13
6208;BME280;3137;51.550;7.060;2023-03-18T09:50:29;100687.47;;;14.12;66.07
6208;BME280;3137;51.550;7.060;2023-03-18T09:53:15;100686.03;;;14.08;66.02
6208;BME280;3137;51.550;7.060;2023-03-18T09:55:48;100689.22;;;14.23;65.83
6208;BME280;3137;51.550;7.060;2023-03-18T09:58:23;100680.91;;;14.36;66.15
6208;BME280;3137;51.550;7.060;2023-03-18T10:00:57;100692.72;;;14.44;65.78
6208;BME280;3137;51.550;7.060;2023-03-18T10:03:33;100699.56;;;14.49;66.12
6208;BME280;3137;51.550;7.060;2023-03-18T10:06:11;100701.97;;;14.52;63.69
6208;BME280;3137;51.550;7.060;2023-03-18T10:08:58;100698.91;;;14.56;63.25
6208;BME280;3137;51.550;7.060;2023-03-18T10:11:32;100698.34;;;14.72;63.50
6208;BME280;3137;51.550;7.060;2023-03-18T10:14:23;100699.53;;;14.99;64.66
6208;BME280;3137;51.550;7.060;2023-03-18T10:17:14;100691.34;;;15.39;62.71
6208;BME280;3137;51.550;7.060;2023-03-18T10:19:46;100693.91;;;15.50;62.71
6208;BME280;3137;51.550;7.060;2023-03-18T10:25:24;100686.38;;;16.21;60.26
6208;BME280;3137;51.550;7.060;2023-03-18T10:36:04;100694.81;;;16.55;56.80
6208;BME280;3137;51.550;7.060;2023-03-18T10:38:36;100699.81;;;16.50;57.59
6208;BME280;3137;51.550;7.060;2023-03-18T10:41:29;100686.50;;;16.56;56.29
6208;BME280;3137;51.550;7.060;2023-03-18T10:43:56;100692.88;;;16.65;55.94
6208;BME280;3137;51.550;7.060;2023-03-18T10:46:26;100682.56;;;17.06;58.10
6208;BME280;3137;51.550;7.060;2023-03-18T10:48:57;100680.00;;;17.22;56.15
6208;BME280;3137;51.550;7.060;2023-03-18T10:51:34;100685.03;;;17.35;54.50
6208;BME280;3137;51.550;7.060;2023-03-18T10:54:18;100681.41;;;17.27;55.89
6208;BME280;3137;51.550;7.060;2023-03-18T10:56:46;100682.25;;;17.27;53.51
6208;BME280;3137;51.550;7.060;2023-03-18T10:59:14;100693.13;;;16.99;53.50
6208;BME280;3137;51.550;7.060;2023-03-18T11:01:50;100685.19;;;17.16;53.50
6208;BME280;3137;51.550;7.060;2023-03-18T11:04:19;100683.03;;;17.19;53.56
6208;BME280;3137;51.550;7.060;2023-03-18T11:07:04;100688.59;;;17.00;54.11
6208;BME280;3137;51.550;7.060;2023-03-18T11:09:35;100680.09;;;17.13;54.42
6208;BME280;3137;51.550;7.060;2023-03-18T11:12:04;100674.66;;;16.95;54.16
6208;BME280;3137;51.550;7.060;2023-03-18T11:14:32;100670.81;;;17.15;54.41
6208;BME280;3137;51.550;7.060;2023-03-18T11:17:05;100665.69;;;17.30;52.97
6208;BME280;3137;51.550;7.060;2023-03-18T11:19:48;100662.56;;;17.61;51.90
6208;BME280;3137;51.550;7.060;2023-03-18T11:22:18;100670.97;;;17.94;52.09
6208;BME280;3137;51.550;7.060;2023-03-18T11:25:00;100665.91;;;17.99;50.92
6208;BME280;3137;51.550;7.060;2023-03-18T11:27:33;100663.69;;;17.76;51.33
6208;BME280;3137;51.550;7.060;2023-03-18T11:30:10;100657.19;;;17.69;51.73
6208;BME280;3137;51.550;7.060;2023-03-18T11:32:56;100661.84;;;17.77;51.34
6208;BME280;3137;51.550;7.060;2023-03-18T11:35:52;100659.69;;;17.80;52.57
6208;BME280;3137;51.550;7.060;2023-03-18T11:38:25;100667.78;;;17.98;50.75
6208;BME280;3137;51.550;7.060;2023-03-18T11:41:14;100671.56;;;18.40;50.66
6208;BME280;3137;51.550;7.060;2023-03-18T11:43:58;100663.00;;;18.61;51.52
6208;BME280;3137;51.550;7.060;2023-03-18T11:46:27;100670.88;;;18.80;49.69
6208;BME280;3137;51.550;7.060;2023-03-18T11:48:56;100671.16;;;18.69;48.26
6208;BME280;3137;51.550;7.060;2023-03-18T11:54:41;100664.47;;;18.89;47.97
6208;BME280;3137;51.550;7.060;2023-03-18T11:57:29;100664.66;;;19.04;46.19
6208;BME280;3137;51.550;7.060;2023-03-18T12:00:27;100668.41;;;19.11;46.15
6208;BME280;3137;51.550;7.060;2023-03-18T12:03:33;100663.66;;;19.46;46.98
6208;BME280;3137;51.550;7.060;2023-03-18T12:06:21;100664.38;;;19.40;46.77
6208;BME280;3137;51.550;7.060;2023-03-18T12:09:18;100662.84;;;19.38;46.06
6208;BME280;3137;51.550;7.060;2023-03-18T12:12:05;100653.47;;;19.07;46.40
6208;BME280;3137;51.550;7.060;2023-03-18T12:14:39;100647.56;;;19.20;46.35
6208;BME280;3137;51.550;7.060;2023-03-18T12:17:43;100653.66;;;19.55;45.65
6208;BME280;3137;51.550;7.060;2023-03-18T12:20:21;100652.81;;;19.79;45.34
6208;BME280;3137;51.550;7.060;2023-03-18T12:23:09;100659.28;;;19.37;44.07
6208;BME280;3137;51.550;7.060;2023-03-18T12:25:59;100652.44;;;19.00;45.59
6208;BME280;3137;51.550;7.060;2023-03-18T12:28:46;100655.53;;;18.63;45.76
6208;BME280;3137;51.550;7.060;2023-03-18T12:31:27;100653.63;;;18.55;46.83
6208;BME280;3137;51.550;7.060;2023-03-18T12:34:01;100663.69;;;18.28;46.54
6208;BME280;3137;51.550;7.060;2023-03-18T12:45:08;100654.13;;;18.08;48.53
6208;BME280;3137;51.550;7.060;2023-03-18T12:47:48;100660.72;;;18.48;47.48
6208;BME280;3137;51.550;7.060;2023-03-18T12:50:22;100639.38;;;18.45;47.25
6208;BME280;3137;51.550;7.060;2023-03-18T12:53:12;100637.63;;;18.36;47.51
6208;BME280;3137;51.550;7.060;2023-03-18T12:55:47;100644.28;;;18.41;47.85
6208;BME280;3137;51.550;7.060;2023-03-18T12:58:20;100641.03;;;18.38;48.34
6208;BME280;3137;51.550;7.060;2023-03-18T13:00:55;100643.25;;;18.42;47.18
6208;BME280;3137;51.550;7.060;2023-03-18T13:03:31;100637.50;;;18.45;47.21
6208;BME280;3137;51.550;7.060;2023-03-18T13:12:13;100625.94;;;18.78;47.52
6208;BME280;3137;51.550;7.060;2023-03-18T13:17:37;100623.28;;;18.52;47.15
6208;BME280;3137;51.550;7.060;2023-03-18T13:20:12;100626.66;;;18.03;47.08
6208;BME280;3137;51.550;7.060;2023-03-18T13:25:35;100627.72;;;18.18;48.53
6208;BME280;3137;51.550;7.060;2023-03-18T13:36:42;100630.75;;;17.63;48.89
6208;BME280;3137;51.550;7.060;2023-03-18T13:39:48;100628.06;;;17.63;48.89
6208;BME280;3137;51.550;7.060;2023-03-18T13:42:22;100619.22;;;17.61;48.41
6208;BME280;3137;51.550;7.060;2023-03-18T13:45:10;100617.47;;;17.78;47.98
6208;BME280;3137;51.550;7.060;2023-03-18T13:47:41;100620.88;;;17.80;47.65
6208;BME280;3137;51.550;7.060;2023-03-18T13:52:46;100618.28;;;18.31;46.81
6208;BME280;3137;51.550;7.060;2023-03-18T13:55:26;100625.72;;;18.20;46.13
6208;BME280;3137;51.550;7.060;2023-03-18T14:00:33;100610.78;;;17.82;46.41
6208;BME280;3137;51.550;7.060;2023-03-18T14:05:40;100605.19;;;17.83;46.80
6208;BME280;3137;51.550;7.060;2023-03-18T14:13:40;100586.13;;;17.75;46.29
6208;BME280;3137;51.550;7.060;2023-03-18T14:16:08;100583.69;;;17.82;46.34
6208;BME280;3137;51.550;7.060;2023-03-18T14:18:36;100585.31;;;17.49;46.55
6208;BME280;3137;51.550;7.060;2023-03-18T14:21:22;100581.69;;;17.40;47.06
6208;BME280;3137;51.550;7.060;2023-03-18T14:24:29;100582.16;;;17.35;46.75
6208;BME280;3137;51.550;7.060;2023-03-18T14:32:00;100579.28;;;16.93;50.18
6208;BME280;3137;51.550;7.060;2023-03-18T14:34:52;100576.38;;;16.76;52.44
6208;BME280;3137;51.550;7.060;2023-03-18T14:37:24;100584.00;;;16.63;53.85
6208;BME280;3137;51.550;7.060;2023-03-18T14:39:54;100598.31;;;16.55;54.02